createdAt,value
2023-02-05T00:00:21.297Z,35.50
2023-02-05T00:02:47.413Z,34.92
2023-02-05T00:05:13.544Z,40.88
2023-02-05T00:07:39.451Z,39.28
2023-02-05T00:10:05.734Z,38.95
2023-02-05T00:12:31.822Z,40.95
2023-02-05T00:14:57.781Z,41.22
2023-02-05T00:17:23.639Z,42.92
2023-02-05T00:19:49.531Z,41.30
2023-02-05T00:22:15.508Z,50.20
2023-02-05T00:24:41.487Z,41.67
2023-02-05T00:27:09.105Z,35.08
2023-02-05T00:29:35.009Z,38.05
2023-02-05T00:32:01.073Z,50.88
2023-02-05T00:34:26.933Z,43.22
2023-02-05T00:36:52.857Z,41.08
2023-02-05T00:39:19.134Z,33.00
2023-02-05T00:41:46.684Z,37.42
2023-02-05T00:44:12.500Z,39.70
2023-02-05T00:46:38.342Z,47.63
2023-02-05T00:49:04.211Z,36.90
2023-02-05T00:51:30.095Z,33.30
2023-02-05T00:53:56.071Z,39.50
2023-02-05T00:56:21.999Z,41.70
2023-02-05T00:58:49.378Z,38.80
2023-02-05T01:01:16.083Z,45.40
2023-02-05T01:03:42.675Z,37.65
2023-02-05T01:06:08.884Z,43.60
2023-02-05T01:08:34.973Z,37.85
2023-02-05T01:11:01.046Z,37.80
2023-02-05T01:13:26.883Z,37.33
2023-02-05T01:15:52.796Z,29.58
2023-02-05T01:18:19.066Z,36.42
2023-02-05T01:20:44.976Z,43.90
2023-02-05T01:23:11.102Z,32.13
2023-02-05T01:25:37.071Z,33.95
2023-02-05T01:28:03.369Z,32.80
2023-02-05T01:30:29.253Z,37.97
2023-02-05T01:32:55.101Z,29.63
2023-02-05T01:35:20.978Z,31.95
2023-02-05T01:37:46.776Z,34.20
2023-02-05T01:40:16.849Z,33.75
2023-02-05T01:42:43.185Z,36.03
2023-02-05T01:45:21.273Z,28.08
2023-02-05T01:47:51.327Z,26.98
2023-02-05T01:50:22.486Z,36.70
2023-02-05T01:52:48.798Z,34.80
2023-02-05T01:55:15.418Z,38.00
2023-02-05T01:57:41.641Z,35.40
2023-02-05T02:00:08.602Z,39.08
2023-02-05T02:02:36.607Z,34.88
2023-02-05T02:05:09.228Z,34.45
2023-02-05T02:07:35.236Z,42.55
2023-02-05T02:10:01.484Z,36.45
2023-02-05T02:12:31.505Z,39.28
2023-02-05T02:15:03.454Z,35.05
2023-02-05T02:17:38.395Z,34.88
2023-02-05T02:20:07.466Z,45.88
2023-02-05T02:22:48.061Z,32.47
2023-02-05T02:25:47.913Z,28.33
2023-02-05T02:28:19.705Z,29.45
2023-02-05T02:31:18.678Z,33.20
2023-02-05T02:33:55.221Z,30.30
2023-02-05T02:36:35.602Z,35.90
2023-02-05T02:39:06.714Z,33.75
2023-02-05T02:41:54.717Z,40.35
2023-02-05T02:44:47.170Z,36.80
2023-02-05T02:47:20.465Z,44.33
2023-02-05T02:50:16.682Z,39.00
2023-02-05T02:52:45.905Z,36.33
2023-02-05T02:55:15.371Z,35.17
2023-02-05T02:57:44.701Z,41.95
2023-02-05T03:00:19.200Z,37.13
2023-02-05T03:02:47.889Z,32.17
2023-02-05T03:05:17.758Z,29.35
2023-02-05T03:07:52.037Z,37.65
2023-02-05T03:10:25.409Z,28.30
2023-02-05T03:12:51.644Z,38.97
2023-02-05T03:15:17.822Z,32.55
2023-02-05T03:17:55.157Z,34.80
2023-02-05T03:20:32.763Z,37.83
2023-02-05T03:22:58.958Z,39.55
2023-02-05T03:25:28.660Z,34.72
2023-02-05T03:27:55.717Z,34.78
2023-02-05T03:30:27.627Z,33.00
2023-02-05T03:32:57.891Z,43.95
2023-02-05T03:35:35.940Z,40.65
2023-02-05T03:38:19.734Z,42.28
2023-02-05T03:40:52.087Z,39.33
2023-02-05T03:43:32.103Z,43.28
2023-02-05T03:46:17.690Z,50.05
2023-02-05T03:48:51.765Z,42.78
2023-02-05T03:51:30.005Z,42.30
2023-02-05T03:54:20.032Z,44.05
2023-02-05T03:57:04.949Z,36.75
2023-02-05T03:59:33.303Z,44.40
2023-02-05T04:01:59.568Z,39.45
2023-02-05T04:04:25.561Z,37.03
2023-02-05T04:06:52.800Z,39.03
2023-02-05T04:09:19.259Z,38.78
2023-02-05T04:11:45.091Z,33.10
2023-02-05T04:14:10.971Z,45.92
2023-02-05T04:16:36.902Z,44.20
2023-02-05T04:19:03.192Z,34.58
2023-02-05T04:21:29.038Z,42.70
2023-02-05T04:23:54.924Z,40.95
2023-02-05T04:26:20.776Z,39.00
2023-02-05T04:28:46.706Z,42.63
2023-02-05T04:31:12.648Z,43.20
2023-02-05T04:33:39.712Z,43.47
2023-02-05T04:36:06.253Z,39.30
2023-02-05T04:38:32.307Z,60.70
2023-02-05T04:40:58.262Z,39.13
2023-02-05T04:43:24.164Z,68.28
2023-02-05T04:45:50.065Z,38.13
2023-02-05T04:48:16.636Z,52.53
2023-02-05T04:50:42.485Z,42.42
2023-02-05T04:53:09.010Z,42.67
2023-02-05T04:55:35.173Z,48.03
2023-02-05T04:58:01.259Z,44.65
2023-02-05T05:00:27.331Z,48.58
2023-02-05T05:02:53.116Z,49.75
2023-02-05T05:05:18.988Z,44.33
2023-02-05T05:07:44.797Z,43.33
2023-02-05T05:10:11.624Z,48.33
2023-02-05T05:12:37.988Z,41.88
2023-02-05T05:15:05.384Z,55.53
2023-02-05T05:17:33.292Z,46.28
2023-02-05T05:19:59.304Z,48.97
2023-02-05T05:22:25.218Z,42.67
2023-02-05T05:24:51.041Z,50.88
2023-02-05T05:27:17.946Z,49.08
2023-02-05T05:29:45.825Z,56.63
2023-02-05T05:32:12.841Z,56.97
2023-02-05T05:34:38.851Z,58.08
2023-02-05T05:37:04.712Z,56.55
2023-02-05T05:39:49.083Z,69.78
2023-02-05T05:42:33.527Z,52.92
2023-02-05T05:44:59.325Z,63.78
2023-02-05T05:47:25.148Z,87.60
2023-02-05T05:49:51.065Z,49.00
2023-02-05T05:52:17.008Z,36.65
2023-02-05T05:54:43.001Z,30.10
2023-02-05T05:57:08.935Z,23.88
2023-02-05T05:59:34.852Z,24.60
2023-02-05T06:02:01.618Z,21.52
2023-02-05T06:04:27.990Z,19.15
2023-02-05T06:06:53.903Z,10.27
2023-02-05T06:09:21.020Z,13.55
2023-02-05T06:11:50.661Z,11.18
2023-02-05T06:14:16.527Z,11.35
2023-02-05T06:16:42.328Z,9.65
2023-02-05T06:19:08.158Z,10.32
2023-02-05T06:21:34.069Z,13.23
2023-02-05T06:23:59.896Z,15.82
2023-02-05T06:26:25.872Z,16.23
2023-02-05T06:28:51.669Z,16.92
2023-02-05T06:31:18.525Z,17.30
2023-02-05T06:33:44.385Z,16.25
2023-02-05T06:36:10.272Z,17.02
2023-02-05T06:38:36.113Z,17.05
2023-02-05T06:41:01.991Z,16.77
2023-02-05T06:43:27.902Z,15.85
2023-02-05T06:45:54.930Z,14.27
2023-02-05T06:48:21.310Z,15.82
2023-02-05T06:50:47.176Z,15.95
2023-02-05T06:53:13.115Z,16.10
2023-02-05T06:55:40.289Z,15.40
2023-02-05T06:58:07.172Z,15.77
2023-02-05T07:00:33.940Z,14.50
2023-02-05T07:02:59.894Z,15.88
2023-02-05T07:05:25.772Z,14.48
2023-02-05T07:07:51.554Z,18.20
2023-02-05T07:10:18.132Z,17.33
2023-02-05T07:12:44.200Z,17.02
2023-02-05T07:15:10.014Z,22.90
2023-02-05T07:17:36.293Z,19.70
2023-02-05T07:20:02.183Z,24.60
2023-02-05T07:22:28.090Z,22.38
2023-02-05T07:24:53.967Z,21.27
2023-02-05T07:27:19.809Z,19.65
2023-02-05T07:29:45.686Z,25.88
2023-02-05T07:32:11.585Z,28.20
2023-02-05T07:34:37.654Z,22.33
2023-02-05T07:37:04.121Z,26.58
2023-02-05T07:39:30.040Z,27.05
2023-02-05T07:41:55.837Z,25.33
2023-02-05T07:44:21.888Z,32.85
2023-02-05T07:46:48.076Z,32.33
2023-02-05T07:49:13.992Z,30.60
2023-02-05T07:51:40.004Z,31.27
2023-02-05T07:54:08.019Z,35.45
2023-02-05T07:56:34.196Z,34.00
2023-02-05T07:59:00.333Z,32.35
2023-02-05T08:01:26.238Z,31.42
2023-02-05T08:03:52.206Z,31.58
2023-02-05T08:06:18.012Z,28.65
2023-02-05T08:08:43.945Z,26.65
2023-02-05T08:11:14.132Z,31.63
2023-02-05T08:13:42.727Z,34.05
2023-02-05T08:16:09.006Z,31.17
2023-02-05T08:18:34.918Z,31.50
2023-02-05T08:21:00.809Z,33.58
2023-02-05T08:23:26.738Z,29.13
2023-02-05T08:25:56.820Z,31.38
2023-02-05T08:28:24.593Z,31.38
2023-02-05T08:30:50.939Z,28.05
2023-02-05T08:33:17.020Z,29.48
2023-02-05T08:35:42.993Z,30.67
2023-02-05T08:38:08.930Z,27.38
2023-02-05T08:40:35.793Z,26.92
2023-02-05T08:43:02.095Z,28.42
2023-02-05T08:45:28.971Z,31.73
2023-02-05T08:47:55.155Z,32.03
2023-02-05T08:50:22.384Z,25.63
2023-02-05T08:52:49.135Z,27.65
2023-02-05T08:55:17.439Z,24.58
2023-02-05T08:57:43.774Z,23.00
2023-02-05T09:00:10.700Z,23.00
2023-02-05T09:02:36.542Z,15.68
2023-02-05T09:05:09.069Z,17.85
2023-02-05T09:07:37.027Z,18.63
2023-02-05T09:10:03.275Z,14.93
2023-02-05T09:12:29.236Z,13.32
2023-02-05T09:14:55.232Z,14.90
2023-02-05T09:17:21.520Z,10.93
2023-02-05T09:19:47.538Z,11.82
2023-02-05T09:22:13.520Z,8.60
2023-02-05T09:24:39.528Z,9.75
2023-02-05T09:27:06.706Z,10.75
2023-02-05T09:29:32.821Z,9.60
2023-02-05T09:31:58.717Z,10.65
2023-02-05T09:34:24.600Z,12.10
2023-02-05T09:36:50.474Z,11.32
2023-02-05T09:39:36.909Z,11.45
2023-02-05T09:42:34.805Z,9.85
2023-02-05T09:45:27.459Z,10.55
2023-02-05T09:48:07.213Z,9.07
2023-02-05T09:50:33.807Z,7.38
2023-02-05T09:53:05.192Z,10.00
2023-02-05T09:55:38.310Z,8.77
2023-02-05T09:58:11.339Z,7.15
2023-02-05T10:01:01.970Z,5.97
2023-02-05T10:03:36.513Z,4.45
2023-02-05T10:06:28.611Z,5.88
2023-02-05T10:09:05.382Z,4.22
2023-02-05T10:11:41.308Z,4.00
2023-02-05T10:14:07.204Z,4.70
2023-02-05T10:16:38.226Z,3.85
2023-02-05T10:20:00.551Z,5.53
2023-02-05T10:22:40.322Z,4.38
2023-02-05T10:25:46.851Z,3.95
2023-02-05T10:28:31.260Z,5.80
2023-02-05T10:31:09.965Z,2.97
2023-02-05T10:33:49.119Z,1.85
2023-02-05T10:36:20.466Z,2.80
2023-02-05T10:38:48.306Z,2.15
2023-02-05T10:41:47.370Z,3.55
2023-02-05T10:44:28.238Z,2.30
2023-02-05T10:47:02.955Z,2.38
2023-02-05T10:49:39.965Z,3.70
2023-02-05T10:52:13.372Z,3.30
2023-02-05T10:54:40.144Z,2.13
2023-02-05T10:57:13.247Z,1.73
2023-02-05T10:59:50.099Z,1.48
2023-02-05T11:02:16.086Z,1.63
2023-02-05T11:04:48.727Z,1.75
2023-02-05T11:07:40.113Z,1.27
2023-02-05T11:10:16.416Z,4.80
2023-02-05T11:12:48.776Z,1.63
2023-02-05T11:15:30.712Z,1.10
2023-02-05T11:18:00.199Z,1.30
2023-02-05T11:20:34.900Z,1.92
2023-02-05T11:23:06.205Z,0.85
2023-02-05T11:25:32.097Z,1.38
2023-02-05T11:28:00.422Z,1.20
2023-02-05T11:33:26.472Z,2.75
2023-02-05T11:36:04.345Z,0.95
2023-02-05T11:38:35.053Z,1.55
2023-02-05T11:41:05.019Z,2.67
2023-02-05T11:43:33.721Z,2.30
2023-02-05T11:46:02.996Z,1.13
2023-02-05T11:48:41.792Z,1.30
2023-02-05T11:51:11.050Z,3.47
2023-02-05T11:53:44.406Z,0.65
2023-02-05T11:56:20.498Z,1.23
2023-02-05T11:59:16.192Z,2.35
2023-02-05T12:01:43.571Z,1.38
2023-02-05T12:04:12.491Z,0.90
2023-02-05T12:06:41.322Z,1.10
2023-02-05T12:09:11.976Z,1.13
2023-02-05T12:12:03.199Z,1.08
2023-02-05T12:14:43.571Z,1.13
2023-02-05T12:17:27.846Z,1.45
2023-02-05T12:19:53.704Z,0.82
2023-02-05T12:22:31.527Z,1.77
2023-02-05T12:25:42.726Z,1.10
2023-02-05T12:28:46.296Z,1.38
2023-02-05T12:31:21.751Z,2.25
2023-02-05T12:34:23.717Z,0.90
2023-02-05T12:37:04.637Z,1.67
2023-02-05T12:39:38.591Z,1.80
2023-02-05T12:42:20.534Z,1.42
2023-02-05T12:44:57.205Z,1.75
2023-02-05T12:47:57.545Z,1.08
2023-02-05T12:50:23.350Z,1.58
2023-02-05T12:52:57.041Z,1.45
2023-02-05T12:55:29.069Z,3.67
2023-02-05T12:58:05.198Z,3.78
2023-02-05T13:00:55.461Z,3.80
2023-02-05T13:03:38.158Z,5.60
2023-02-05T13:06:09.625Z,4.20
2023-02-05T13:08:47.945Z,5.05
2023-02-05T13:11:41.224Z,5.72
2023-02-05T13:14:25.921Z,21.73
2023-02-05T13:17:01.620Z,8.20
2023-02-05T13:19:40.436Z,6.40
2023-02-05T13:22:46.655Z,4.63
2023-02-05T13:25:49.485Z,5.15
2023-02-05T13:28:39.753Z,3.75
2023-02-05T13:31:12.028Z,3.38
2023-02-05T13:33:38.185Z,3.63
2023-02-05T13:36:28.555Z,4.22
2023-02-05T13:39:34.349Z,2.72
2023-02-05T13:42:34.290Z,3.55
2023-02-05T13:45:25.150Z,8.30
2023-02-05T13:48:11.229Z,11.85
2023-02-05T13:50:57.164Z,9.77
2023-02-05T13:53:47.226Z,6.93
2023-02-05T13:56:36.346Z,10.45
2023-02-05T13:59:13.119Z,7.57
2023-02-05T14:01:48.744Z,9.68
2023-02-05T14:04:52.766Z,9.00
2023-02-05T14:07:34.562Z,7.97
2023-02-05T14:10:02.142Z,8.73
2023-02-05T14:12:32.172Z,7.32
2023-02-05T14:15:19.441Z,9.43
2023-02-05T14:17:45.386Z,8.75
2023-02-05T14:20:23.943Z,8.23
2023-02-05T14:22:57.358Z,13.73
2023-02-05T14:25:38.436Z,14.20
2023-02-05T14:28:29.933Z,16.80
2023-02-05T14:31:02.639Z,11.35
2023-02-05T14:33:36.148Z,11.88
2023-02-05T14:36:18.141Z,16.27
2023-02-05T14:38:51.229Z,13.75
2023-02-05T14:41:45.273Z,13.70
2023-02-05T14:44:11.114Z,9.77
2023-02-05T14:47:25.581Z,9.88
2023-02-05T14:49:58.334Z,9.25
2023-02-05T14:52:33.349Z,8.40
2023-02-05T14:55:18.229Z,8.38
2023-02-05T14:57:52.680Z,9.05
2023-02-05T15:00:41.094Z,8.15
2023-02-05T15:03:21.958Z,9.68
2023-02-05T15:05:54.812Z,5.88
2023-02-05T15:08:35.931Z,6.57
2023-02-05T15:11:08.284Z,6.00
2023-02-05T15:13:34.740Z,9.45
2023-02-05T15:16:16.060Z,8.63
2023-02-05T15:18:51.019Z,7.68
2023-02-05T15:21:23.558Z,10.70
2023-02-05T15:24:02.452Z,7.97
2023-02-05T15:26:48.131Z,9.55
2023-02-05T15:29:27.004Z,6.70
2023-02-05T15:32:00.755Z,6.97
2023-02-05T15:34:28.964Z,6.40
2023-02-05T15:37:09.123Z,7.40
2023-02-05T15:39:40.954Z,6.80
2023-02-05T15:42:15.051Z,4.88
2023-02-05T15:44:41.071Z,6.55
2023-02-05T15:47:27.432Z,6.53
2023-02-05T15:50:00.244Z,6.75
2023-02-05T15:52:29.269Z,8.73
2023-02-05T15:54:59.635Z,8.00
2023-02-05T15:57:29.144Z,10.70
2023-02-05T15:59:57.245Z,15.32
2023-02-05T16:02:28.587Z,14.75
2023-02-05T16:05:00.807Z,13.10
2023-02-05T16:07:35.531Z,16.85
2023-02-05T16:10:15.557Z,12.00
2023-02-05T16:12:57.004Z,13.50
2023-02-05T16:15:25.102Z,11.18
2023-02-05T16:17:52.438Z,10.57
2023-02-05T16:20:39.055Z,12.13
2023-02-05T16:23:12.145Z,15.27
2023-02-05T16:25:46.991Z,13.80
2023-02-05T16:28:18.693Z,15.55
2023-02-05T16:30:46.710Z,16.23
2023-02-05T16:33:29.770Z,14.55
2023-02-05T16:35:59.276Z,20.08
2023-02-05T16:38:26.304Z,17.60
2023-02-05T16:40:55.047Z,21.35
2023-02-05T16:43:38.597Z,20.10
2023-02-05T16:46:07.885Z,23.90
2023-02-05T16:48:48.822Z,20.55
2023-02-05T16:51:44.993Z,15.52
2023-02-05T16:54:10.815Z,22.00
2023-02-05T16:56:54.546Z,12.70
2023-02-05T16:59:32.532Z,15.82
2023-02-05T17:01:59.069Z,17.33
2023-02-05T17:04:34.701Z,12.65
2023-02-05T17:09:37.210Z,17.38
2023-02-05T17:12:21.830Z,16.40
2023-02-05T17:14:58.565Z,16.00
2023-02-05T17:17:26.823Z,12.20
2023-02-05T17:20:17.312Z,12.20
2023-02-05T17:23:10.361Z,15.93
2023-02-05T17:25:55.228Z,16.70
2023-02-05T17:28:29.211Z,11.20
2023-02-05T17:30:59.572Z,18.63
2023-02-05T17:33:28.470Z,11.93
2023-02-05T17:35:55.187Z,13.93
2023-02-05T17:38:23.033Z,15.00
2023-02-05T17:40:50.076Z,11.10
2023-02-05T17:43:16.438Z,14.80
2023-02-05T17:45:43.690Z,11.90
2023-02-05T17:48:10.822Z,14.48
2023-02-05T17:50:38.159Z,11.05
2023-02-05T17:53:04.725Z,12.05
2023-02-05T17:55:31.050Z,12.02
2023-02-05T17:57:56.992Z,12.73
2023-02-05T18:00:25.910Z,10.30
2023-02-05T18:02:52.525Z,12.27
2023-02-05T18:05:19.629Z,13.90
2023-02-05T18:07:48.648Z,7.13
2023-02-05T18:10:23.009Z,8.10
2023-02-05T18:12:50.783Z,8.20
2023-02-05T18:15:17.026Z,10.80
2023-02-05T18:17:42.950Z,5.57
2023-02-05T18:20:09.631Z,10.13
2023-02-05T18:22:35.893Z,8.88
2023-02-05T18:25:01.853Z,9.18
2023-02-05T18:27:28.107Z,9.85
2023-02-05T18:29:54.058Z,8.60
2023-02-05T18:32:20.194Z,11.10
2023-02-05T18:34:46.175Z,11.50
2023-02-05T18:37:14.375Z,8.43
2023-02-05T18:39:40.760Z,10.70
2023-02-05T18:42:06.750Z,11.23
2023-02-05T18:44:33.249Z,11.80
2023-02-05T18:46:59.514Z,5.55
2023-02-05T18:49:25.535Z,6.57
2023-02-05T18:51:51.537Z,11.43
2023-02-05T18:54:17.465Z,11.60
2023-02-05T18:56:43.484Z,15.38
2023-02-05T18:59:14.650Z,11.40
2023-02-05T19:01:41.141Z,11.57
2023-02-05T19:04:13.289Z,10.60
2023-02-05T19:06:44.399Z,10.00
2023-02-05T19:09:10.899Z,10.30
2023-02-05T19:11:40.797Z,15.05
2023-02-05T19:14:10.469Z,9.50
2023-02-05T19:16:37.934Z,13.30
2023-02-05T19:19:04.504Z,8.65
2023-02-05T19:21:32.042Z,8.65
2023-02-05T19:24:04.755Z,5.25
2023-02-05T19:26:32.477Z,7.20
2023-02-05T19:29:00.516Z,7.80
2023-02-05T19:31:31.175Z,6.90
2023-02-05T19:33:58.251Z,8.77
2023-02-05T19:36:25.111Z,8.77
2023-02-05T19:38:51.881Z,10.70
2023-02-05T19:41:20.816Z,10.23
2023-02-05T19:43:58.923Z,11.90
2023-02-05T19:46:32.819Z,15.90
2023-02-05T19:49:02.618Z,20.20
2023-02-05T19:51:28.963Z,19.85
2023-02-05T19:53:58.869Z,16.17
2023-02-05T19:56:25.437Z,18.50
2023-02-05T19:58:53.973Z,17.60
2023-02-05T20:01:29.042Z,19.40
2023-02-05T20:03:57.614Z,16.83
2023-02-05T20:06:26.488Z,19.73
2023-02-05T20:08:52.642Z,18.73
2023-02-05T20:11:19.102Z,18.20
2023-02-05T20:13:45.957Z,18.58
2023-02-05T20:16:16.469Z,21.27
2023-02-05T20:18:42.998Z,18.90
2023-02-05T20:21:14.710Z,18.88
2023-02-05T20:23:41.093Z,25.13
2023-02-05T20:26:08.052Z,24.45
2023-02-05T20:28:55.460Z,17.75
2023-02-05T20:31:34.105Z,23.50
2023-02-05T20:34:02.656Z,20.95
2023-02-05T20:36:29.790Z,22.42
2023-02-05T20:38:56.579Z,27.00
2023-02-05T20:41:23.206Z,28.05
2023-02-05T20:43:49.341Z,26.27
2023-02-05T20:46:16.001Z,20.80
2023-02-05T20:48:42.006Z,26.85
2023-02-05T20:51:10.647Z,25.02
2023-02-05T20:53:36.913Z,21.90
2023-02-05T20:56:09.013Z,21.40
2023-02-05T20:58:35.817Z,16.13
2023-02-05T21:01:13.524Z,24.35
2023-02-05T21:03:42.985Z,23.67
2023-02-05T21:06:09.870Z,18.58
2023-02-05T21:08:40.951Z,21.67
2023-02-05T21:11:07.394Z,17.83
2023-02-05T21:13:34.797Z,20.73
2023-02-05T21:16:03.099Z,29.02
2023-02-05T21:18:30.003Z,24.95
2023-02-05T21:21:08.553Z,27.50
2023-02-05T21:23:35.023Z,25.77
2023-02-05T21:26:01.696Z,21.42
2023-02-05T21:28:27.697Z,25.30
2023-02-05T21:31:05.634Z,24.15
2023-02-05T21:33:32.052Z,16.92
2023-02-05T21:36:05.889Z,21.25
2023-02-05T21:38:36.568Z,12.15
2023-02-05T21:41:10.443Z,18.65
2023-02-05T21:43:36.840Z,19.58
2023-02-05T21:46:04.604Z,15.85
2023-02-05T21:48:30.528Z,21.63
2023-02-05T21:50:56.651Z,16.10
2023-02-05T21:53:22.474Z,19.55
2023-02-05T21:55:48.559Z,16.65
2023-02-05T21:58:14.448Z,14.07
2023-02-05T22:00:40.497Z,19.48
2023-02-05T22:03:06.440Z,11.30
2023-02-05T22:05:33.586Z,16.67
2023-02-05T22:07:59.453Z,17.15
2023-02-05T22:10:25.492Z,19.88
2023-02-05T22:12:51.343Z,17.63
2023-02-05T22:15:17.171Z,19.15
2023-02-05T22:17:43.362Z,21.13
2023-02-05T22:20:09.931Z,14.23
2023-02-05T22:22:36.046Z,17.17
2023-02-05T22:25:03.376Z,22.00
2023-02-05T22:27:29.879Z,28.00
2023-02-05T22:29:55.858Z,21.20
2023-02-05T22:32:22.171Z,19.42
2023-02-05T22:34:47.999Z,14.65
2023-02-05T22:37:13.818Z,24.83
2023-02-05T22:39:42.036Z,23.73
2023-02-05T22:42:07.922Z,15.23
2023-02-05T22:44:34.318Z,23.42
2023-02-05T22:47:00.162Z,18.17
2023-02-05T22:49:26.264Z,16.30
2023-02-05T22:51:52.526Z,10.98
2023-02-05T22:54:18.567Z,13.25
2023-02-05T22:56:45.072Z,19.55
2023-02-05T22:59:11.537Z,14.30
2023-02-05T23:01:38.423Z,17.35
2023-02-05T23:04:06.483Z,21.58
2023-02-05T23:06:35.146Z,18.42
2023-02-05T23:09:17.396Z,15.60
2023-02-05T23:11:44.156Z,17.23
2023-02-05T23:14:12.082Z,17.88
2023-02-05T23:16:40.101Z,16.48
2023-02-05T23:19:09.337Z,12.48
2023-02-05T23:21:37.191Z,12.38
2023-02-05T23:24:03.578Z,18.10
2023-02-05T23:26:41.080Z,12.27
2023-02-05T23:29:08.250Z,17.95
2023-02-05T23:31:34.261Z,15.63
2023-02-05T23:34:00.381Z,15.18
2023-02-05T23:36:26.263Z,14.23
2023-02-05T23:38:52.211Z,14.15
2023-02-05T23:41:36.448Z,18.42
2023-02-05T23:44:13.302Z,17.52
2023-02-05T23:46:40.880Z,11.38
2023-02-05T23:49:07.323Z,10.18
2023-02-05T23:51:33.830Z,15.77
2023-02-05T23:53:59.849Z,21.02
2023-02-05T23:56:25.852Z,18.58
2023-02-05T23:58:51.685Z,13.10
